Time;durP1;ratioP1;P1;durP2;ratioP2;P2;SDS_P1;SDS_P2;PMS_P1;PMS_P2;Temp;Humidity;BMP_temperature;BMP_pressure;BME280_temperature;BME280_humidity;BME280_pressure;Samples;Min_cycle;Max_cycle;Signal;HPM_P1;HPM_P2
2023/02/24 00:02:13;;;;;;;2.40;1.58;;;;;;;3.85;98.00;101712.69;5010492;28;20049;-73
2023/02/24 00:04:39;;;;;;;2.65;1.60;;;;;;;3.85;98.02;101696.28;5018656;28;20087;-73
2023/02/24 00:07:06;;;;;;;3.50;1.95;;;;;;;3.86;98.47;101700.63;5015925;28;20057;-73
2023/02/24 00:09:32;;;;;;;3.15;1.70;;;;;;;3.87;98.24;101697.16;5018750;28;20429;-73
2023/02/24 00:12:16;;;;;;;4.55;1.90;;;;;;;3.87;98.43;101702.34;5015706;28;20050;-73
2023/02/24 00:14:43;;;;;;;4.13;1.73;;;;;;;3.84;98.56;101685.06;5019036;28;20048;-73
2023/02/24 00:17:13;;;;;;;4.22;1.65;;;;;;;3.82;98.67;101675.56;5015940;28;20228;-73
2023/02/24 00:19:38;;;;;;;3.55;2.00;;;;;;;3.81;98.61;101690.25;5018478;28;20036;-73
2023/02/24 00:22:06;;;;;;;3.40;2.05;;;;;;;3.80;98.86;101682.47;5006433;28;20050;-73
2023/02/24 00:24:31;;;;;;;3.65;1.95;;;;;;;3.79;98.75;101672.97;4997821;28;20297;-73
2023/02/24 00:27:00;;;;;;;2.80;1.80;;;;;;;3.78;99.01;101668.66;5013502;28;20045;-73
2023/02/24 00:29:27;;;;;;;;;;;;;;;3.78;99.20;101666.06;5006406;28;20045;-73
2023/02/24 00:31:58;;;;;;;3.50;1.75;;;;;;;3.79;99.21;101662.63;5015849;28;19925;-73
2023/02/24 00:34:28;;;;;;;4.50;2.10;;;;;;;3.76;99.23;101658.28;4999041;28;20050;-73
2023/02/24 00:36:53;;;;;;;4.53;1.67;;;;;;;3.75;99.14;101655.72;5002461;28;20380;-73
2023/02/24 00:39:27;;;;;;;2.90;1.85;;;;;;;3.71;99.13;101652.25;5018846;28;20042;-73
2023/02/24 00:41:57;;;;;;;2.17;1.70;;;;;;;3.68;99.15;101652.25;5016686;28;20298;-73
2023/02/24 00:44:23;;;;;;;4.03;1.83;;;;;;;3.65;99.18;101655.69;4999107;28;20453;-73
2023/02/24 00:46:48;;;;;;;2.08;1.33;;;;;;;3.65;99.25;101652.22;5016451;28;20056;-73
2023/02/24 00:49:16;;;;;;;2.55;1.60;;;;;;;3.62;98.89;101647.03;4999398;28;20046;-73
2023/02/24 00:51:43;;;;;;;1.85;1.33;;;;;;;3.59;99.22;101642.72;5015331;28;20109;-73
2023/02/24 00:54:13;;;;;;;3.20;1.98;;;;;;;3.56;99.28;101636.69;4982312;28;20049;-73
2023/02/24 00:56:41;;;;;;;2.15;1.40;;;;;;;3.54;99.36;101635.81;5014864;28;20034;-73
2023/02/24 00:59:07;;;;;;;2.53;1.38;;;;;;;3.52;99.04;101632.38;5001037;28;20236;-73
2023/02/24 01:01:33;;;;;;;3.33;1.45;;;;;;;3.50;99.04;101623.75;5012589;28;20069;-73
2023/02/24 01:04:09;;;;;;;2.65;1.42;;;;;;;3.49;99.24;101622.84;5012780;28;20050;-73
2023/02/24 01:06:38;;;;;;;3.58;1.38;;;;;;;3.49;99.31;101625.44;5000592;28;20034;-73
2023/02/24 01:09:07;;;;;;;1.83;1.33;;;;;;;3.49;99.41;101614.22;5002666;28;20042;-73
2023/02/24 01:14:22;;;;;;;3.00;1.45;;;;;;;3.44;99.36;101611.66;5000343;28;20040;-73
2023/02/24 01:16:49;;;;;;;1.85;1.38;;;;;;;3.41;99.37;101602.13;5001946;28;20124;-73
2023/02/24 01:19:16;;;;;;;2.45;1.25;;;;;;;3.39;99.43;101603.00;5002206;28;20061;-73
2023/02/24 01:21:42;;;;;;;2.55;1.35;;;;;;;3.36;99.28;101596.06;4999261;28;20045;-73
2023/02/24 01:24:09;;;;;;;2.97;1.50;;;;;;;3.34;99.30;101596.94;5012283;28;20245;-73
2023/02/24 01:26:35;;;;;;;3.22;1.25;;;;;;;3.32;99.22;101598.69;5017566;28;20048;-73
2023/02/24 01:29:03;;;;;;;3.50;1.52;;;;;;;3.29;99.17;101585.72;5011307;28;20069;-73
2023/02/24 01:31:28;;;;;;;2.03;1.50;;;;;;;3.25;99.38;101579.66;5018556;28;20049;-73
2023/02/24 01:33:53;;;;;;;1.40;1.30;;;;;;;3.23;99.21;101576.22;5010916;28;20430;-73
2023/02/24 01:36:22;;;;;;;2.03;1.20;;;;;;;3.20;99.00;101573.63;5018277;28;20038;-73
2023/02/24 01:38:48;;;;;;;4.22;1.75;;;;;;;3.17;98.91;101569.31;5011007;28;20026;-73
2023/02/24 01:41:21;;;;;;;1.30;1.15;;;;;;;3.15;98.73;101562.41;5018694;28;20121;-73
2023/02/24 01:44:10;;;;;;;1.55;1.27;;;;;;;3.14;98.78;101558.09;5011050;28;20044;-73
2023/02/24 01:46:40;;;;;;;1.58;1.13;;;;;;;3.13;98.92;101548.59;5016377;28;20293;-73
2023/02/24 01:49:08;;;;;;;5.75;1.60;;;;;;;3.11;99.05;101545.13;5017222;28;20048;-73
2023/02/24 01:51:38;;;;;;;2.33;1.60;;;;;;;3.11;98.90;101545.13;5017627;28;20073;-73
2023/02/24 01:54:09;;;;;;;2.60;1.50;;;;;;;3.08;98.96;101539.09;5008108;28;20057;-73
2023/02/24 01:56:34;;;;;;;2.25;1.50;;;;;;;3.08;99.21;101539.09;5010644;28;20265;-73
2023/02/24 01:59:01;;;;;;;5.28;1.63;;;;;;;3.07;99.12;101531.31;5008974;28;20042;-73
2023/02/24 02:01:27;;;;;;;2.63;1.45;;;;;;;3.04;99.11;101532.19;4997661;28;20049;-73
2023/02/24 02:03:59;;;;;;;2.70;1.40;;;;;;;3.02;99.17;101531.34;5005407;28;20079;-73
2023/02/24 02:06:25;;;;;;;5.03;1.55;;;;;;;3.01;99.12;101533.91;5017158;28;20373;-73
2023/02/24 02:08:51;;;;;;;4.30;1.63;;;;;;;2.99;99.23;101526.16;5016678;28;20428;-73
2023/02/24 02:11:19;;;;;;;2.67;1.77;;;;;;;2.97;99.21;101527.88;5017472;28;20045;-73
2023/02/24 02:13:49;;;;;;;2.00;1.70;;;;;;;2.97;99.21;101517.53;5016112;28;20042;-73
2023/02/24 02:16:33;;;;;;;2.80;1.83;;;;;;;2.95;99.16;101516.66;5017522;28;20288;-73
2023/02/24 02:19:27;;;;;;;5.15;1.70;;;;;;;2.94;99.23;101507.16;5016193;28;20072;-73
2023/02/24 02:21:59;;;;;;;2.58;1.73;;;;;;;2.93;99.29;101508.03;5009399;28;20069;-73
2023/02/24 02:24:24;;;;;;;4.28;2.13;;;;;;;2.92;99.41;101508.88;5007323;28;20030;-73
2023/02/24 02:27:08;;;;;;;3.60;2.17;;;;;;;2.92;99.45;101497.69;4998099;28;20038;-73
2023/02/24 02:29:39;;;;;;;3.60;1.60;;;;;;;2.90;99.43;101487.31;5002833;28;20034;-73
2023/02/24 02:32:30;;;;;;;2.10;1.58;;;;;;;2.90;99.49;101489.06;4998014;28;20046;-73
2023/02/24 02:35:21;;;;;;;7.90;1.80;;;;;;;2.88;99.62;101486.47;5002682;28;20046;-73
2023/02/24 02:38:02;;;;;;;3.67;2.15;;;;;;;2.86;99.66;101483.00;5001925;28;20084;-73
2023/02/24 02:40:36;;;;;;;2.58;1.58;;;;;;;2.85;99.57;101476.09;5006775;28;20046;-73
2023/02/24 02:43:24;;;;;;;4.13;1.73;;;;;;;2.84;99.80;101467.47;5007204;28;20054;-73
2023/02/24 02:46:02;;;;;;;2.05;1.50;;;;;;;2.84;99.83;101466.63;4992437;28;20050;-73
2023/02/24 02:48:42;;;;;;;1.50;1.10;;;;;;;2.84;99.86;101475.25;5009722;28;20033;-73
2023/02/24 02:51:15;;;;;;;2.20;1.00;;;;;;;2.83;99.60;101476.09;5003260;28;20203;-73
2023/02/24 02:53:51;;;;;;;3.75;1.30;;;;;;;2.81;99.84;101467.47;5011257;28;20049;-73
2023/02/24 02:56:23;;;;;;;1.70;1.00;;;;;;;2.82;99.88;101464.03;5002158;28;20560;-73
2023/02/24 02:58:52;;;;;;;3.63;1.23;;;;;;;2.81;99.85;101467.47;5011029;28;20034;-73
2023/02/24 03:01:21;;;;;;;1.98;1.10;;;;;;;2.80;100.00;101452.81;5002672;28;20319;-73
2023/02/24 03:03:52;;;;;;;2.92;1.13;;;;;;;2.79;100.00;101451.09;5010639;28;20337;-73
2023/02/24 03:06:25;;;;;;;2.70;1.10;;;;;;;2.79;100.00;101439.88;5009444;28;20037;-73
2023/02/24 03:09:15;;;;;;;3.90;1.35;;;;;;;2.79;100.00;101435.56;5023064;28;20030;-71
2023/02/24 03:11:50;;;;;;;2.60;1.23;;;;;;;2.80;100.00;101431.25;4986054;28;20153;-71
2023/02/24 03:14:22;;;;;;;2.25;0.88;;;;;;;2.81;100.00;101433.84;4986099;28;20046;-71
2023/02/24 03:16:49;;;;;;;0.82;0.80;;;;;;;2.83;100.00;101428.66;5025057;28;20048;-71
2023/02/24 03:19:19;;;;;;;3.78;1.10;;;;;;;2.84;100.00;101430.41;5024838;28;20057;-71
2023/02/24 03:21:55;;;;;;;1.15;0.70;;;;;;;2.84;100.00;101427.81;5005294;28;20038;-71
2023/02/24 03:24:20;;;;;;;2.75;1.40;;;;;;;2.85;100.00;101421.75;5005041;28;20038;-71
2023/02/24 03:26:50;;;;;;;2.88;0.90;;;;;;;2.84;100.00;101420.91;5024687;28;20049;-71
2023/02/24 03:29:31;;;;;;;1.02;0.70;;;;;;;2.85;100.00;101419.19;5023270;28;20029;-71
2023/02/24 03:32:09;;;;;;;1.50;0.68;;;;;;;2.86;100.00;101410.56;5004197;28;20042;-71
2023/02/24 03:34:58;;;;;;;2.05;1.08;;;;;;;2.86;100.00;101406.25;5019973;28;20354;-71
2023/02/24 03:37:27;;;;;;;2.03;0.98;;;;;;;2.88;100.00;101404.53;4984260;28;20110;-71
2023/02/24 03:39:56;;;;;;;1.40;0.88;;;;;;;2.90;100.00;101396.75;5016943;28;20375;-73
2023/02/24 03:42:25;;;;;;;4.03;0.90;;;;;;;2.91;100.00;101384.69;5001461;28;20038;-73
2023/02/24 03:44:51;;;;;;;3.55;0.98;;;;;;;2.92;100.00;101386.41;5001190;28;20038;-73
2023/02/24 03:47:19;;;;;;;6.00;1.08;;;;;;;2.91;100.00;101387.28;4999512;28;20045;-73
2023/02/24 03:49:45;;;;;;;1.90;0.70;;;;;;;2.92;100.00;101383.84;5001063;28;20325;-73
2023/02/24 03:52:40;;;;;;;1.70;0.60;;;;;;;2.91;100.00;101371.75;5019697;28;20357;-73
2023/02/24 03:55:26;;;;;;;1.73;0.80;;;;;;;2.92;100.00;101368.31;5013232;28;20345;-73
2023/02/24 03:58:16;;;;;;;1.92;0.88;;;;;;;2.93;100.00;101372.59;5000697;28;20491;-73
2023/02/24 04:00:54;;;;;;;3.53;0.90;;;;;;;2.93;100.00;101364.84;5007447;28;20105;-73
2023/02/24 04:03:44;;;;;;;3.63;0.68;;;;;;;2.92;100.00;101361.41;5019925;28;20137;-73
2023/02/24 04:06:34;;;;;;;1.48;0.80;;;;;;;2.92;100.00;101358.81;5009608;28;20034;-73
2023/02/24 04:09:16;;;;;;;0.75;0.60;;;;;;;2.94;100.00;101359.66;5000220;28;20073;-73
2023/02/24 04:11:48;;;;;;;2.13;0.60;;;;;;;2.93;100.00;101354.50;5014417;28;20097;-73
2023/02/24 04:14:23;;;;;;;7.10;1.40;;;;;;;2.78;99.01;101348.47;5019984;28;20088;-73
2023/02/24 04:17:12;;;;;;;4.15;1.13;;;;;;;2.73;97.86;101350.22;5004897;28;20311;-73
2023/02/24 04:19:40;;;;;;;3.00;1.25;;;;;;;2.68;96.88;101347.63;4980180;28;20039;-73
2023/02/24 04:22:09;;;;;;;1.73;0.60;;;;;;;2.73;97.88;101349.31;5013358;28;20221;-73
2023/02/24 04:24:36;;;;;;;1.98;0.80;;;;;;;2.77;98.71;101341.59;5019075;28;20045;-73
2023/02/24 04:27:05;;;;;;;6.55;1.33;;;;;;;2.68;96.22;101345.03;5004200;28;20037;-73
2023/02/24 04:29:34;;;;;;;4.82;1.13;;;;;;;2.64;95.05;101335.56;5000332;28;20049;-73
2023/02/24 04:32:05;;;;;;;5.38;0.88;;;;;;;2.65;95.51;101326.06;5013827;28;20337;-73
2023/02/24 04:34:34;;;;;;;2.38;0.50;;;;;;;2.71;96.63;101332.94;4999769;28;20042;-73
2023/02/24 04:37:01;;;;;;;5.45;1.33;;;;;;;2.72;96.37;101330.38;5012539;28;20120;-73
2023/02/24 04:39:28;;;;;;;2.50;0.70;;;;;;;2.73;96.23;101319.16;5012381;28;20039;-73
2023/02/24 04:41:53;;;;;;;4.40;0.88;;;;;;;2.76;96.54;101320.88;5011815;28;20073;-73
2023/02/24 04:44:20;;;;;;;2.90;0.95;;;;;;;2.80;97.20;101323.47;5014337;28;20046;-73
2023/02/24 04:46:48;;;;;;;2.28;0.80;;;;;;;2.85;97.66;101315.69;5009794;28;20220;-73
2023/02/24 04:49:14;;;;;;;1.40;0.73;;;;;;;2.88;97.92;101305.34;5004505;28;20215;-73
2023/02/24 04:51:43;;;;;;;0.88;0.50;;;;;;;2.93;98.30;101302.75;5007317;28;20076;-73
2023/02/24 04:54:12;;;;;;;0.60;0.60;;;;;;;2.96;98.73;101295.84;5018783;28;20034;-73
2023/02/24 04:56:39;;;;;;;0.98;0.52;;;;;;;3.01;98.83;101288.09;5010905;28;20125;-73
2023/02/24 04:59:05;;;;;;;0.98;0.55;;;;;;;3.02;99.23;101292.38;4998982;28;20049;-73
2023/02/24 05:01:31;;;;;;;1.08;0.50;;;;;;;3.04;99.42;101286.34;5005178;28;20052;-73
2023/02/24 05:03:58;;;;;;;1.90;0.60;;;;;;;3.05;99.63;101280.28;5018823;28;20034;-73
2023/02/24 05:06:24;;;;;;;0.85;0.60;;;;;;;3.07;99.85;101276.00;4979092;28;20034;-73
2023/02/24 05:08:51;;;;;;;2.17;1.00;;;;;;;3.08;100.00;101282.03;4999249;28;20254;-73
2023/02/24 05:11:17;;;;;;;0.65;0.50;;;;;;;3.10;100.00;101280.28;5002587;28;20329;-73
2023/02/24 05:13:46;;;;;;;1.65;0.60;;;;;;;3.09;100.00;101275.97;5011404;28;20057;-73
2023/02/24 05:16:14;;;;;;;1.98;0.60;;;;;;;3.11;100.00;101275.97;5003583;28;20049;-73
2023/02/24 05:18:41;;;;;;;3.03;0.63;;;;;;;3.12;100.00;101267.34;4998837;28;20034;-73
2023/02/24 05:23:54;;;;;;;1.45;0.60;;;;;;;3.14;100.00;101261.28;5017054;28;20247;-73
2023/02/24 05:26:24;;;;;;;0.50;0.47;;;;;;;3.16;100.00;101254.38;5015437;28;20038;-73
2023/02/24 05:28:52;;;;;;;1.67;0.90;;;;;;;3.19;100.00;101250.94;4999077;28;20026;-73
2023/02/24 05:31:22;;;;;;;3.15;0.70;;;;;;;3.21;100.00;101241.44;5002539;28;20033;-73
2023/02/24 05:33:53;;;;;;;1.48;0.50;;;;;;;3.21;100.00;101238.84;5003911;28;20052;-73
2023/02/24 05:36:19;;;;;;;0.43;0.43;;;;;;;3.22;100.00;101237.97;5016589;28;20353;-73
2023/02/24 05:38:46;;;;;;;1.98;0.60;;;;;;;3.23;100.00;101234.53;4998128;28;20101;-73
2023/02/24 05:41:16;;;;;;;2.15;0.60;;;;;;;3.25;100.00;101232.78;4998639;28;20042;-73
2023/02/24 05:43:54;;;;;;;1.17;0.95;;;;;;;3.25;100.00;101223.28;4988485;28;20073;-73
2023/02/24 05:46:26;;;;;;;2.40;0.77;;;;;;;3.28;100.00;101218.97;5014129;28;20109;-73
2023/02/24 05:48:55;;;;;;;2.85;1.30;;;;;;;3.26;100.00;101214.66;4998833;28;20356;-72
2023/02/24 05:51:25;;;;;;;5.18;1.38;;;;;;;3.21;100.00;101215.56;5001102;28;20036;-72
2023/02/24 05:53:54;;;;;;;5.78;1.80;;;;;;;3.13;99.81;101207.81;4998648;28;20056;-73
2023/02/24 05:56:22;;;;;;;3.88;1.17;;;;;;;3.13;100.00;101194.88;5004634;28;20041;-73
2023/02/24 05:59:00;;;;;;;3.43;1.60;;;;;;;3.18;100.00;101189.66;4998997;28;20038;-73
2023/02/24 06:01:36;;;;;;;3.67;1.52;;;;;;;3.14;99.75;101188.81;5005240;28;20355;-73
2023/02/24 06:04:05;;;;;;;7.20;1.90;;;;;;;3.12;99.16;101179.34;4979159;28;20066;-73
2023/02/24 06:06:36;;;;;;;3.42;1.80;;;;;;;3.07;97.96;101188.00;4993359;28;20041;-73
2023/02/24 06:09:09;;;;;;;7.13;1.55;;;;;;;3.02;96.07;101187.16;5000599;28;20076;-73
2023/02/24 06:11:36;;;;;;;5.93;1.70;;;;;;;3.01;96.30;101182.00;5002626;28;20046;-73
2023/02/24 06:14:02;;;;;;;15.38;4.18;;;;;;;2.99;96.19;101183.72;5022609;28;20285;-73
2023/02/24 06:16:28;;;;;;;3.42;1.90;;;;;;;2.97;95.33;101180.28;5023500;28;20345;-73
2023/02/24 06:18:57;;;;;;;5.45;2.15;;;;;;;2.97;95.30;101175.97;5008422;28;20347;-73
2023/02/24 06:21:23;;;;;;;7.13;1.88;;;;;;;2.97;95.39;101169.94;5010274;28;20091;-73
2023/02/24 06:23:49;;;;;;;5.75;1.92;;;;;;;2.97;95.43;101163.03;5008867;28;20042;-73
2023/02/24 06:26:18;;;;;;;8.27;2.28;;;;;;;3.00;96.32;101150.09;5008704;28;20041;-73
2023/02/24 06:28:45;;;;;;;14.15;2.65;;;;;;;2.98;95.11;101148.34;5010055;28;20089;-73
2023/02/24 06:31:12;;;;;;;13.85;2.78;;;;;;;2.98;94.55;101156.13;5013435;28;20041;-73
2023/02/24 06:33:39;;;;;;;3.08;1.50;;;;;;;2.95;94.39;101141.47;5010727;28;20042;-73
2023/02/24 06:36:05;;;;;;;10.77;1.98;;;;;;;2.94;94.58;101139.75;5011827;28;20050;-73
2023/02/24 06:38:32;;;;;;;8.30;2.38;;;;;;;2.96;94.75;101143.19;5012804;28;20093;-73
2023/02/24 06:41:03;;;;;;;11.27;2.22;;;;;;;2.98;94.85;101138.84;5010217;28;20092;-73
2023/02/24 06:43:29;;;;;;;7.80;1.70;;;;;;;3.01;95.06;101127.66;5013557;28;20098;-73
2023/02/24 06:45:54;;;;;;;5.32;2.38;;;;;;;3.01;94.63;101125.06;5021343;28;20052;-73
2023/02/24 06:48:21;;;;;;;5.13;2.17;;;;;;;3.02;95.11;101130.25;5016113;28;20034;-73
2023/02/24 06:50:48;;;;;;;7.10;1.92;;;;;;;3.06;95.90;101129.34;5003421;28;20048;-73
2023/02/24 06:53:15;;;;;;;5.57;1.85;;;;;;;3.11;95.70;101125.88;5009390;28;20087;-73
2023/02/24 06:55:47;;;;;;;9.27;1.80;;;;;;;3.15;96.10;101125.00;5006458;28;20061;-73
2023/02/24 06:58:19;;;;;;;3.88;1.58;;;;;;;3.19;96.19;101124.13;5017603;28;20044;-73
2023/02/24 07:00:55;;;;;;;11.45;2.25;;;;;;;3.19;96.23;101112.03;5013756;28;20333;-73
2023/02/24 07:03:23;;;;;;;14.48;2.40;;;;;;;3.21;95.67;101117.19;5018838;28;20030;-73
2023/02/24 07:05:59;;;;;;;6.53;1.75;;;;;;;3.22;95.58;101119.78;5022653;28;20038;-73
2023/02/24 07:08:26;;;;;;;7.15;2.05;;;;;;;3.23;95.32;101118.03;5017350;28;20064;-73
2023/02/24 07:10:56;;;;;;;5.72;1.60;;;;;;;3.25;95.63;101118.88;5007158;28;20105;-73
2023/02/24 07:13:28;;;;;;;3.65;1.92;;;;;;;3.28;95.61;101115.44;5018493;28;20244;-73
2023/02/24 07:15:54;;;;;;;5.97;1.75;;;;;;;3.32;95.95;101119.72;5008214;28;20269;-73
2023/02/24 07:18:20;;;;;;;4.63;1.52;;;;;;;3.35;96.12;101115.38;5016408;28;20029;-73
2023/02/24 07:20:45;;;;;;;18.65;2.58;;;;;;;3.38;96.27;101111.91;5013778;28;20038;-73
2023/02/24 07:23:15;;;;;;;18.08;2.47;;;;;;;3.38;96.08;101099.81;5014311;28;20026;-73
2023/02/24 07:25:45;;;;;;;6.95;1.50;;;;;;;3.41;96.13;101098.94;5000983;28;20046;-73
2023/02/24 07:28:11;;;;;;;12.43;2.08;;;;;;;3.42;96.37;101092.88;5001998;28;20030;-73
2023/02/24 07:30:39;;;;;;;7.45;1.98;;;;;;;3.44;95.87;101086.84;5000172;28;20026;-73
2023/02/24 07:33:05;;;;;;;9.25;2.10;;;;;;;3.45;96.11;101073.00;5003423;28;20345;-73
2023/02/24 07:35:32;;;;;;;5.90;1.67;;;;;;;3.51;95.64;101073.84;5000049;28;20294;-73
2023/02/24 07:38:00;;;;;;;13.07;2.47;;;;;;;3.52;96.11;101067.78;4999940;28;20105;-73
2023/02/24 07:40:27;;;;;;;12.52;2.25;;;;;;;3.55;96.40;101073.81;5000530;28;20118;-73
2023/02/24 07:42:53;;;;;;;6.43;1.80;;;;;;;3.56;96.43;101065.16;5007581;28;20334;-73
2023/02/24 07:45:19;;;;;;;9.95;2.28;;;;;;;3.60;96.73;101069.47;5005991;28;20057;-73
2023/02/24 07:47:44;;;;;;;13.23;2.28;;;;;;;3.62;96.50;101066.81;5014291;28;20041;-73
2023/02/24 07:50:13;;;;;;;15.13;2.47;;;;;;;3.65;96.12;101059.91;5017504;28;20038;-73
2023/02/24 07:52:40;;;;;;;7.63;2.38;;;;;;;3.67;96.20;101061.63;5002492;28;20038;-73
2023/02/24 07:55:08;;;;;;;3.67;1.58;;;;;;;3.69;95.92;101052.97;4999416;28;20038;-73
2023/02/24 07:57:36;;;;;;;9.02;2.30;;;;;;;3.71;96.59;101048.66;5000981;28;20530;-73
2023/02/24 08:00:58;;;;;;;14.07;2.20;;;;;;;3.73;96.56;101054.66;5001368;28;20031;-73
2023/02/24 08:02:57;;;;;;;8.75;2.00;;;;;;;3.76;96.08;101046.84;5000031;28;20054;-73
2023/02/24 08:05:23;;;;;;;16.05;2.72;;;;;;;3.79;96.73;101051.16;5011891;28;20029;-73
2023/02/24 08:07:50;;;;;;;15.20;2.45;;;;;;;3.81;97.05;101045.09;5010387;28;20271;-73
2023/02/24 08:10:23;;;;;;;11.55;2.42;;;;;;;3.82;97.04;101043.34;5001376;28;20109;-73
2023/02/24 08:12:53;;;;;;;8.23;1.77;;;;;;;3.84;96.94;101036.44;4999673;28;20256;-73
2023/02/24 08:15:25;;;;;;;8.52;2.33;;;;;;;3.87;97.00;101038.13;5006279;28;20129;-73
2023/02/24 08:17:52;;;;;;;12.07;2.17;;;;;;;3.88;97.33;101038.13;5002427;28;20407;-73
2023/02/24 08:22:50;;;;;;;12.13;2.90;;;;;;;3.91;97.93;101043.28;4998933;28;20573;-73
2023/02/24 08:25:18;;;;;;;12.02;2.35;;;;;;;3.91;98.29;101037.22;5016365;28;20084;-73
2023/02/24 08:27:54;;;;;;;10.50;2.85;;;;;;;3.92;98.28;101037.19;5003649;28;20254;-73
2023/02/24 08:30:24;;;;;;;17.05;2.38;;;;;;;3.93;98.31;101036.34;4998847;28;20033;-73
2023/02/24 08:32:58;;;;;;;7.55;2.08;;;;;;;3.94;98.31;101027.69;4998251;28;20056;-73
2023/02/24 08:35:34;;;;;;;7.80;2.20;;;;;;;3.97;98.89;101013.84;4998702;28;20108;-73
2023/02/24 08:38:15;;;;;;;11.40;2.92;;;;;;;3.98;99.02;101016.44;5003561;28;20046;-73
2023/02/24 08:40:51;;;;;;;10.23;2.35;;;;;;;4.01;99.31;101010.34;5011199;28;20336;-73
2023/02/24 08:43:31;;;;;;;7.82;2.03;;;;;;;4.00;99.49;101006.91;5015232;28;20214;-73
2023/02/24 08:46:16;;;;;;;15.52;2.45;;;;;;;4.02;99.51;100999.09;5006053;28;20037;-72
2023/02/24 08:48:45;;;;;;;7.97;1.80;;;;;;;4.04;99.15;100992.19;4998365;28;20044;-72
2023/02/24 08:51:21;;;;;;;6.95;1.90;;;;;;;4.04;98.89;100989.59;4998669;28;20370;-72
2023/02/24 08:53:51;;;;;;;13.18;3.30;;;;;;;4.06;99.30;100990.41;5000553;28;20041;-72
2023/02/24 08:56:22;;;;;;;10.70;2.22;;;;;;;4.08;99.59;100987.81;4986297;28;20034;-72
2023/02/24 08:59:03;;;;;;;11.68;1.85;;;;;;;4.08;99.79;100980.91;4995422;28;20062;-72
2023/02/24 09:01:34;;;;;;;8.00;2.10;;;;;;;4.09;99.98;100980.00;4996476;28;20352;-72
2023/02/24 09:04:03;;;;;;;9.02;2.67;;;;;;;4.12;99.76;100984.31;5008213;28;20148;-72
2023/02/24 09:06:48;;;;;;;11.65;2.08;;;;;;;4.13;99.96;100986.88;4996501;28;20037;-73
2023/02/24 09:09:16;;;;;;;11.15;2.45;;;;;;;4.14;100.00;100990.31;4998462;28;20121;-73
2023/02/24 09:11:46;;;;;;;16.83;2.47;;;;;;;4.15;100.00;100987.72;4995388;28;20038;-73
2023/02/24 09:14:15;;;;;;;7.07;1.95;;;;;;;4.16;100.00;100981.66;4997231;28;20273;-73
2023/02/24 09:17:01;;;;;;;10.35;2.38;;;;;;;4.18;100.00;100973.84;4994693;28;20056;-73
2023/02/24 09:19:39;;;;;;;15.02;2.47;;;;;;;4.20;100.00;100978.16;4996487;28;20045;-73
2023/02/24 09:22:13;;;;;;;16.65;2.67;;;;;;;4.22;100.00;100957.38;4994928;28;20064;-72
2023/02/24 09:24:39;;;;;;;14.85;2.88;;;;;;;4.26;100.00;100958.19;4992370;28;20042;-73
2023/02/24 09:27:05;;;;;;;17.33;2.38;;;;;;;4.27;100.00;100953.00;4997969;28;20053;-73
2023/02/24 09:29:33;;;;;;;20.05;2.90;;;;;;;4.30;100.00;100947.78;4998302;28;20039;-73
2023/02/24 09:32:04;;;;;;;13.83;2.13;;;;;;;4.31;100.00;100949.50;4998711;28;20049;-73
2023/02/24 09:34:42;;;;;;;17.17;2.92;;;;;;;4.33;100.00;100954.66;4994086;28;20042;-73
2023/02/24 09:37:23;;;;;;;19.23;3.27;;;;;;;4.34;100.00;100933.03;4995578;28;20034;-73
2023/02/24 09:42:45;;;;;;;22.85;2.33;;;;;;;4.38;100.00;100934.72;4974497;28;20422;-73
2023/02/24 09:45:31;;;;;;;14.45;2.55;;;;;;;4.39;100.00;100934.69;4996677;28;20034;-73
2023/02/24 09:48:09;;;;;;;14.13;2.40;;;;;;;4.40;100.00;100928.66;4998129;28;20038;-73
2023/02/24 09:50:45;;;;;;;17.92;2.78;;;;;;;4.41;100.00;100925.16;4996104;28;20030;-73
2023/02/24 09:53:17;;;;;;;18.58;2.90;;;;;;;4.43;100.00;100919.94;4996368;28;20241;-73
2023/02/24 09:56:02;;;;;;;10.93;2.83;;;;;;;4.46;100.00;100916.44;4994009;28;20042;-73
2023/02/24 09:58:30;;;;;;;11.40;3.20;;;;;;;4.47;100.00;100919.03;4998463;28;20105;-73
2023/02/24 10:01:21;;;;;;;19.10;4.38;;;;;;;4.50;100.00;100918.13;4996597;28;20044;-73
2023/02/24 10:04:04;;;;;;;17.85;4.22;;;;;;;4.53;100.00;100913.75;4994531;28;20162;-73
2023/02/24 10:06:38;;;;;;;18.13;3.78;;;;;;;4.56;100.00;100912.84;4994867;28;20049;-73
2023/02/24 10:09:25;;;;;;;16.88;4.25;;;;;;;4.59;100.00;100915.41;4997348;28;20109;-73
2023/02/24 10:12:19;;;;;;;15.13;4.35;;;;;;;4.63;100.00;100905.84;4995716;28;20044;-73
2023/02/24 10:17:48;;;;;;;9.88;5.28;;;;;;;4.66;100.00;100905.78;4994894;28;20112;-73
2023/02/24 10:20:38;;;;;;;14.15;4.60;;;;;;;4.68;100.00;100901.44;4992331;28;20060;-73
2023/02/24 10:23:28;;;;;;;17.90;5.97;;;;;;;4.70;100.00;100895.34;4995030;28;20041;-73
2023/02/24 10:26:43;;;;;;;14.43;5.00;;;;;;;4.72;100.00;100893.56;4998831;28;20207;-73
2023/02/24 10:29:28;;;;;;;12.77;5.38;;;;;;;4.73;100.00;100884.03;4956902;28;20038;-72
2023/02/24 10:32:22;;;;;;;12.10;6.03;;;;;;;4.76;100.00;100886.59;4996679;28;20099;-72
2023/02/24 10:34:49;;;;;;;13.80;7.43;;;;;;;4.78;100.00;100882.25;4985293;28;20046;-72
2023/02/24 10:37:18;;;;;;;14.50;7.90;;;;;;;4.79;100.00;100890.00;4996150;28;20352;-73
2023/02/24 10:39:48;;;;;;;20.02;8.13;;;;;;;4.80;100.00;100883.94;4996388;28;20064;-73
2023/02/24 10:42:31;;;;;;;13.38;7.05;;;;;;;4.81;100.00;100872.66;4994396;28;20038;-73
2023/02/24 10:45:22;;;;;;;15.80;8.60;;;;;;;4.85;100.00;100883.00;4992806;28;20392;-73
2023/02/24 10:47:59;;;;;;;17.38;9.68;;;;;;;4.85;100.00;100870.88;4993925;28;20072;-73
2023/02/24 10:50:32;;;;;;;12.15;9.13;;;;;;;4.86;100.00;100872.59;4993898;28;20064;-73
2023/02/24 10:58:27;;;;;;;18.48;9.65;;;;;;;4.90;100.00;100870.81;5000887;28;20037;-73
2023/02/24 11:01:19;;;;;;;10.85;9.00;;;;;;;4.91;100.00;100868.22;4997741;28;20038;-73
2023/02/24 11:04:00;;;;;;;15.75;10.00;;;;;;;4.93;100.00;100882.00;4999308;28;20203;-73
2023/02/24 11:17:30;;;;;;;15.60;10.65;;;;;;;5.02;100.00;100878.41;4992420;28;20378;-73
2023/02/24 11:20:00;;;;;;;17.25;10.60;;;;;;;5.02;100.00;100868.03;4997835;28;20287;-73
2023/02/24 11:22:33;;;;;;;16.95;11.18;;;;;;;5.04;100.00;100866.25;4994969;28;20030;-73
2023/02/24 11:25:18;;;;;;;16.85;10.05;;;;;;;5.05;100.00;100870.53;4995913;28;20030;-73
2023/02/24 11:27:45;;;;;;;14.27;9.80;;;;;;;5.07;100.00;100855.78;5001937;28;20042;-73
2023/02/24 11:30:15;;;;;;;13.95;10.32;;;;;;;5.09;100.00;100850.59;5001868;28;20341;-73
2023/02/24 11:32:46;;;;;;;16.00;9.93;;;;;;;5.11;100.00;100836.72;4983953;28;20026;-73
2023/02/24 11:35:23;;;;;;;13.85;9.50;;;;;;;5.12;100.00;100838.41;5006593;28;20050;-73
2023/02/24 11:38:01;;;;;;;16.95;9.90;;;;;;;5.14;100.00;100838.38;5004446;28;20045;-73
2023/02/24 11:40:32;;;;;;;13.27;9.55;;;;;;;5.16;100.00;100834.00;4997481;28;20067;-73
2023/02/24 11:43:23;;;;;;;17.17;10.50;;;;;;;5.17;100.00;100830.53;4998738;28;20091;-73
2023/02/24 11:46:00;;;;;;;14.02;9.73;;;;;;;5.17;100.00;100814.97;4997900;28;20038;-73
2023/02/24 11:48:32;;;;;;;15.98;9.65;;;;;;;5.18;100.00;100817.53;4993958;28;20045;-73
2023/02/24 11:51:06;;;;;;;19.80;9.27;;;;;;;5.22;100.00;100809.66;4992034;28;20092;-73
2023/02/24 11:53:35;;;;;;;19.30;9.85;;;;;;;5.22;100.00;100805.34;4998148;28;20041;-73
2023/02/24 11:56:07;;;;;;;18.17;9.60;;;;;;;5.27;100.00;100815.63;5000096;28;20046;-73
2023/02/24 11:58:44;;;;;;;21.05;9.98;;;;;;;5.30;100.00;100818.19;4999630;28;20336;-73
2023/02/24 12:01:39;;;;;;;27.98;10.20;;;;;;;5.35;100.00;100809.41;5002487;28;20111;-73
2023/02/24 12:04:28;;;;;;;22.90;10.40;;;;;;;5.41;100.00;100808.44;5004308;28;20316;-73
2023/02/24 12:07:09;;;;;;;28.33;10.07;;;;;;;5.45;100.00;100806.63;4998790;28;20352;-73
2023/02/24 12:09:49;;;;;;;25.88;9.80;;;;;;;5.53;100.00;100807.31;4978491;28;20518;-73
2023/02/24 12:12:29;;;;;;;37.35;10.10;;;;;;;5.60;100.00;100792.47;5002557;28;20125;-73
2023/02/24 12:15:09;;;;;;;25.58;10.10;;;;;;;5.66;100.00;100784.56;4990003;28;20060;-73
2023/02/24 12:18:10;;;;;;;27.33;9.60;;;;;;;5.70;100.00;100783.59;4998401;28;20412;-73
2023/02/24 12:20:47;;;;;;;25.88;8.60;;;;;;;5.73;100.00;100776.59;4986606;28;20058;-73
2023/02/24 12:23:16;;;;;;;34.70;8.23;;;;;;;5.77;100.00;100786.03;4998472;28;20330;-73